Aviation Digital Data Service (ADDS)

Output produced by METARs form (0001 UTC 26 June 2019)
found at http://aviationweather.gov/metar/data/
 
KCLL 252353Z 18014G22KT 10SM CLR 28/20 A3000 RMK AO2 SLP155 T02780200 10328 20278 50002
KCLL 252320Z 2600/2624 16013KT P6SM FEW050 SCT100 
     TEMPO 2600/2601 -RA 
     FM260200 15009KT P6SM FEW030 SCT150 
     FM261500 15012KT P6SM VCSH SCT035 
     FM261900 15012KT P6SM VCTS SCT040CB